Latest Weather Observations for Richmond

IDN60901

Issued at 11:51 pm EDT Friday 6 March 2015 (issued every 10 minutes, with the page automatically refreshed every 10 minutes)

About weather observations | Map of Sydney area stations | Latest observations for Sydney area | Other Formats
Station Details ID: 067105 Name: RICHMOND RAAF Lat: -33.60 Lon: 150.78 Height: 19.0 m
Data from the previous 72 hours. | See also: Recent months at Richmond
Date/Time
EDT
Tmp

°C
App
Tmp
°C
Dew
Point
°C
Rel
Hum
%
Delta-T

°C
Wind Press
QNH
hPa
Press
MSL
hPa
Rain
since
9 am
mm
Dir
 
Spd
km/h
Gust
km/h
Spd
kts
Gust
kts
06/11:30pm 19.9 18.6 10.0 53 5.3 SW 7 11 4 6 1009.4 1009.3 0.0
06/11:00pm 20.8 19.4 9.4 48 6.1 SSW 7 9 4 5 1009.2 1009.1 0.0
06/10:30pm 20.4 19.1 9.3 49 5.9 S 6 11 3 6 1009.0 1008.9 0.0
06/10:00pm 21.7 21.4 10.2 48 6.3 SSW 2 7 1 4 1008.6 1008.5 0.0
06/09:30pm 20.8 20.5 8.8 46 6.3 CALM 0 0 0 0 1008.2 1008.1 0.0
06/09:00pm 22.5 20.3 7.9 39 7.7 SW 9 13 5 7 1007.7 1007.6 0.0
06/08:30pm 23.2 20.2 7.7 37 8.1 SSE 13 15 7 8 1006.8 1006.7 0.0
06/08:00pm 23.9 21.2 7.5 35 8.6 WSW 11 15 6 8 1006.0 1005.9 0.0
06/07:30pm 25.3 22.1 7.0 31 9.6 WSW 13 17 7 9 1005.4 1005.3 0.0
06/07:00pm 27.5 23.2 6.8 27 11.0 WSW 19 26 10 14 1004.7 1004.6 0.0
06/06:30pm 28.6 24.5 7.8 27 11.3 W 19 24 10 13 1004.3 1004.2 0.0
06/05:30pm 29.5 24.6 6.8 24 12.1 W 22 30 12 16 1003.6 1003.5 0.0
06/05:00pm 29.6 24.3 6.9 24 12.2 WNW 24 35 13 19 1003.4 1003.3 0.0
06/04:30pm 30.0 24.4 7.2 24 12.3 W 26 39 14 21 1003.3 1003.2 0.0
06/04:00pm 29.9 25.2 5.9 22 12.7 WSW 20 32 11 17 1003.3 1003.2 0.0
06/03:30pm 30.1 25.6 6.1 22 12.7 NW 19 33 10 18 1003.4 1003.3 0.0
06/03:00pm 29.2 24.7 6.0 23 12.3 NNW 19 22 10 12 1004.0 1003.9 0.0
06/02:30pm 28.6 24.1 6.1 24 11.8 NW 19 28 10 15 1004.6 1004.5 0.0
06/02:00pm 28.3 25.4 6.4 25 11.6 NE 11 24 6 13 1004.8 1004.7 0.0
06/01:30pm 26.6 24.3 5.5 26 10.9 N 7 11 4 6 1005.4 1005.3 0.0
06/01:00pm 25.8 23.8 6.4 29 10.1 NW 6 9 3 5 1005.9 1005.8 0.0
06/12:30pm 25.9 24.1 7.0 30 10.0 N 6 9 3 5 1006.5 1006.4 0.0
06/11:30am 23.1 20.4 5.5 32 8.9 NW 9 19 5 10 1007.3 1007.2 0.0
06/11:00am 22.4 19.9 3.5 29 9.1 N 6 48 3 26 1007.8 1007.7 0.0
06/10:30am 21.2 18.1 3.4 31 8.5 NNE 9 13 5 7 1008.3 1008.2 0.0
06/10:00am 20.7 17.5 5.1 36 7.7 N 11 15 6 8 1008.1 1008.0 0.0
06/09:30am 20.3 16.4 5.5 38 7.3 NNW 15 19 8 10 1008.1 1008.0 0.0
06/08:30am 17.2 15.4 9.6 61 4.0 NNE 9 15 5 8 1008.5 1008.4 0.0
06/08:00am 15.4 16.0 12.0 80 1.9 CALM 0 0 0 0 1008.5 1008.4 0.0
06/07:30am 13.4 12.5 11.3 87 1.1 SE 7 11 4 6 1008.6 1008.5 0.0
06/07:00am 12.9 11.8 9.9 82 1.5 NW 6 7 3 4 1008.4 1008.3 0.0
06/06:30am 13.3 12.8 10.7 84 1.4 N 4 9 2 5 1008.5 1008.4 0.0
06/05:30am 13.0 12.8 10.5 85 1.3 NNE 2 7 1 4 1009.0 1008.9 0.0
06/05:00am 13.5 12.0 10.7 83 1.5 NNE 9 11 5 6 1009.0 1008.9 0.0
06/04:30am 13.8 12.1 11.3 85 1.3 N 11 13 6 7 1009.3 1009.2 0.0
06/04:00am 13.2 12.5 11.3 88 1.0 NW 6 7 3 4 1009.9 1009.8 0.0
06/03:30am 13.3 12.6 11.4 88 1.0 NNW 6 6 3 3 1010.2 1010.1 0.0
06/03:00am 13.8 14.2 11.3 85 1.3 CALM 0 7 0 4 1010.5 1010.4 0.0
06/02:30am 13.9 13.1 11.2 84 1.4 NW 6 7 3 4 1011.1 1011.0 0.0
06/02:00am 14.5 15.0 11.5 82 1.6 CALM 0 0 0 0 1011.6 1011.5 0.0
06/01:30am 14.8 15.2 11.4 80 1.8 CALM 0 0 0 0 1011.9 1011.8 0.0
06/01:00am 15.4 15.9 11.6 78 2.0 CALM 0 2 0 1 1012.3 1012.2 0.0
06/12:30am 15.8 15.2 11.6 76 2.3 WNW 6 9 3 5 1012.5 1012.4 0.0
 
Date/Time
EDT
Tmp

°C
App
Tmp
°C
Dew
Point
°C
Rel
Hum
%
Delta-T

°C
Wind Press
QNH
hPa
Press
MSL
hPa
Rain
since
9 am
mm
Dir
 
Spd
km/h
Gust
km/h
Spd
kts
Gust
kts
05/11:30pm 16.4 15.6 10.9 70 2.9 WSW 6 7 3 4 1013.0 1012.9 0.0
05/11:00pm 18.2 17.3 10.8 62 4.0 S 6 7 3 4 1013.0 1012.9 0.0
05/10:30pm 19.3 18.1 10.3 56 4.8 SE 7 9 4 5 1013.2 1013.1 0.0
05/10:00pm 19.8 18.3 10.5 55 5.0 SSE 9 13 5 7 1013.3 1013.2 0.0
05/09:30pm 20.0 17.2 10.1 53 5.3 SE 15 19 8 10 1013.1 1013.0 0.0
05/09:00pm 20.3 17.1 10.1 52 5.5 SE 17 24 9 13 1012.7 1012.6 0.0
05/08:30pm 20.6 18.0 9.5 49 5.9 SE 13 19 7 10 1012.0 1011.9 0.0
05/08:00pm 20.6 18.0 9.5 49 5.9 SE 13 17 7 9 1011.5 1011.4 0.0
05/07:30pm 20.7 18.2 9.6 49 5.9 SE 13 17 7 9 1011.1 1011.0 0.0
05/07:00pm 20.9 17.1 9.8 49 6.0 ESE 20 26 11 14 1010.6 1010.5 0.0
05/06:30pm 21.6 17.4 9.8 47 6.4 ESE 22 28 12 15 1010.1 1010.0 0.0
05/06:00pm 21.7 16.7 10.8 50 6.0 ESE 28 37 15 20 1009.7 1009.6 0.0
05/05:30pm 22.1 17.2 11.2 50 6.0 SE 28 37 15 20 1009.0 1008.9 0.0
05/05:00pm 23.7 18.9 13.0 51 6.2 ESE 30 41 16 22 1008.5 1008.4 0.0
05/04:30pm 24.6 19.5 13.8 51 6.3 ESE 33 43 18 23 1007.9 1007.8 0.0
05/04:00pm 24.9 20.3 14.7 53 6.1 ESE 32 41 17 22 1007.5 1007.4 0.0
05/03:30pm 25.2 20.4 14.6 51 6.3 ESE 33 44 18 24 1007.3 1007.2 0.0
05/03:14pm 26.4 22.2 13.5 45 7.6 SE 28 46 15 25 1007.1 1007.0 0.0
05/03:00pm 28.3 23.4 8.6 29 10.8 SE 24 35 13 19 1007.1 1007.0 0.0
05/02:30pm 27.9 23.8 8.7 30 10.5 SSE 20 32 11 17 1007.2 1007.1 0.0
05/02:00pm 27.5 23.7 8.9 31 10.2 S 19 30 10 16 1007.1 1007.0 0.0
05/01:30pm 27.2 22.9 7.1 28 10.7 S 19 32 10 17 1007.4 1007.3 0.0
05/01:00pm 27.4 24.0 9.3 32 10.0 SSE 17 32 9 17 1007.3 1007.2 0.0
05/12:30pm 26.7 23.1 8.2 31 10.0 SSW 17 28 9 15 1007.4 1007.3 0.0
05/12:00pm 26.4 23.1 7.9 31 9.9 S 15 22 8 12 1007.6 1007.5 0.0
05/11:30am 25.7 22.3 7.8 32 9.5 SW 15 20 8 11 1007.6 1007.5 0.0
05/11:00am 26.2 21.7 6.8 29 10.2 SW 20 30 11 16 1007.6 1007.5 0.0
05/10:30am 26.4 20.5 7.4 30 10.1 WSW 28 43 15 23 1007.1 1007.0 0.0
05/10:00am 26.4 19.9 6.4 28 10.5 WSW 30 41 16 22 1006.5 1006.4 0.0
05/09:30am 25.6 21.8 7.7 32 9.5 WSW 17 26 9 14 1006.6 1006.5 0.0
05/09:00am 24.9 21.4 7.1 32 9.4 WNW 15 20 8 11 1006.1 1006.0 0.0
05/08:30am 22.1 19.1 7.9 40 7.4 WNW 13 20 7 11 1005.9 1005.8 0.0
05/08:00am 18.9 20.2 17.0 89 1.2 SE 6 11 3 6 1006.1 1006.0 0.0
05/07:30am 17.0 17.5 15.5 91 0.9 SSW 7 11 4 6 1005.7 1005.6 0.0
05/07:00am 17.1 16.2 13.8 81 1.9 WNW 11 17 6 9 1005.2 1005.1 0.0
05/06:41am 16.5 15.7 15.0 91 0.9 WNW 13 20 7 11 1005.2 1005.1 0.0
05/06:36am 16.8 15.4 14.4 86 1.4 WNW 15 20 8 11 1005.1 1005.0 0.0
05/06:30am 16.0 15.0 14.7 92 0.7 W 13 19 7 10 1005.1 1005.0 0.0
05/06:25am 15.9 15.7 15.7 99 0.1 W 11 17 6 9 1005.0 1004.9 0.0
05/06:04am 15.8 17.2 15.5 98 0.2 SW 2 7 1 4 1004.7 1004.6 0.0
05/06:00am 15.9 17.0 15.6 98 0.2 SSW 4 7 2 4 1004.5 1004.4 0.0
05/05:53am 16.3 17.5 16.0 98 0.2 WSW 4 11 2 6 1004.6 1004.5 0.0
05/05:43am 16.6 18.0 16.3 98 0.2 NNW 4 9 2 5 1004.5 1004.4 0.0
05/05:42am 16.5 17.8 16.2 98 0.2 N 4 9 2 5 1004.5 1004.4 0.0
05/05:30am 16.5 18.6 16.2 98 0.2 CALM 0 0 0 0 1004.6 1004.5 0.0
05/05:29am 16.4 18.4 16.1 98 0.2 CALM 0 0 0 0 1004.6 1004.5 0.0
05/05:25am 16.9 19.1 16.6 98 0.2 CALM 0 0 0 0 1004.7 1004.6 0.0
05/05:19am 16.9 19.1 16.6 98 0.2 CALM 0 6 0 3 1004.7 1004.6 0.0
05/05:13am 16.8 18.2 16.5 98 0.2 W 4 7 2 4 1004.7 1004.6 0.0
05/05:12am 17.0 18.6 16.8 99 0.1 WNW 4 7 2 4 1004.7 1004.6 0.0
05/05:09am 17.2 18.5 17.0 99 0.1 WNW 6 7 3 4 1004.7 1004.6 0.0
05/05:00am 17.0 18.2 16.8 99 0.1 N 6 7 3 4 1004.7 1004.6 0.0
05/04:30am 17.2 19.4 16.6 96 0.4 CALM 0 0 0 0 1004.7 1004.6 0.0
05/04:00am 18.3 21.0 17.8 97 0.3 CALM 0 0 0 0 1005.1 1005.0 0.0
05/03:30am 18.5 21.3 18.0 97 0.3 CALM 0 0 0 0 1005.4 1005.3 0.0
05/03:23am 19.2 22.4 18.9 98 0.2 CALM 0 0 0 0 1005.5 1005.4 0.0
05/03:18am 19.0 22.1 18.7 98 0.2 CALM 0 0 0 0 1005.6 1005.5 0.0
05/03:00am 19.3 22.2 19.0 98 0.2 WNW 2 6 1 3 1005.9 1005.8 0.0
05/02:44am 19.4 21.6 19.1 98 0.2 N 6 6 3 3 1006.0 1005.9 0.0
05/02:30am 19.8 22.4 19.3 97 0.3 NNE 4 9 2 5 1006.2 1006.1 0.0
05/02:27am 19.3 21.9 18.5 95 0.5 NNE 2 9 1 5 1006.3 1006.2 0.0
05/02:14am 19.8 22.7 19.1 96 0.4 NNE 2 6 1 3 1006.5 1006.4 0.0
05/02:00am 20.0 22.9 19.0 94 0.6 NE 2 6 1 3 1006.6 1006.5 0.0
05/01:30am 20.2 23.3 18.7 91 0.9 CALM 0 0 0 0 1007.1 1007.0 0.0
05/01:00am 20.6 24.0 19.3 92 0.8 CALM 0 0 0 0 1007.4 1007.3 0.0
05/12:30am 20.7 23.5 18.8 89 1.2 NNE 2 7 1 4 1007.7 1007.6 0.0
05/12:00am 21.5 23.7 19.2 87 1.5 SW 6 7 3 4 1008.0 1007.9 0.0
 
Date/Time
EDT
Tmp

°C
App
Tmp
°C
Dew
Point
°C
Rel
Hum
%
Delta-T

°C
Wind Press
QNH
hPa
Press
MSL
hPa
Rain
since
9 am
mm
Dir
 
Spd
km/h
Gust
km/h
Spd
kts
Gust
kts
04/11:30pm 22.1 24.4 19.5 85 1.7 SSW 6 9 3 5 1008.3 1008.2 0.0
04/11:00pm 22.4 24.9 19.8 85 1.7 WSW 6 7 3 4 1008.6 1008.5 0.0
04/10:30pm 22.9 25.4 19.9 83 1.9 SE 6 7 3 4 1008.6 1008.5 0.0
04/10:00pm 23.4 27.0 19.8 80 2.3 CALM 0 0 0 0 1008.7 1008.6 0.0
04/09:30pm 24.1 27.3 19.8 77 2.8 SE 2 7 1 4 1008.7 1008.6 0.0
04/09:00pm 24.3 26.2 19.8 76 2.9 E 9 11 5 6 1008.4 1008.3 0.0
04/08:30pm 24.8 27.0 20.3 76 2.9 E 9 13 5 7 1008.1 1008.0 0.0
04/08:00pm 25.6 26.8 20.6 74 3.3 E 15 20 8 11 1007.7 1007.6 0.0
04/07:30pm 26.7 28.3 20.8 70 3.9 E 13 19 7 10 1007.5 1007.4 0.0
04/07:00pm 27.5 28.7 20.6 66 4.6 ENE 15 19 8 10 1007.2 1007.1 0.0
04/06:30pm 29.0 31.1 20.2 59 5.8 NE 9 24 5 13 1007.2 1007.1 0.0
04/06:00pm 29.5 31.5 19.2 54 6.7 NE 7 13 4 7 1007.3 1007.2 0.0
04/05:30pm 30.0 31.3 19.4 53 6.9 ENE 11 17 6 9 1007.4 1007.3 0.0
04/05:00pm 30.3 31.8 19.0 50 7.4 ESE 9 15 5 8 1007.6 1007.5 0.0
04/04:30pm 30.2 31.8 19.2 51 7.2 E 9 17 5 9 1007.8 1007.7 0.0
04/04:00pm 30.0 32.2 19.7 54 6.8 SE 7 15 4 8 1008.2 1008.1 0.0
04/03:30pm 29.7 31.3 19.1 53 6.9 ENE 9 15 5 8 1008.7 1008.6 0.0
04/03:00pm 29.1 30.6 19.7 57 6.2 SE 11 13 6 7 1009.4 1009.3 0.0
04/02:30pm 29.0 30.7 19.3 55 6.3 NE 9 13 5 7 1009.8 1009.7 0.0
04/02:00pm 28.3 29.8 19.0 57 6.0 SE 9 17 5 9 1010.1 1010.0 0.0
04/01:30pm 27.3 28.7 18.6 59 5.6 E 9 15 5 8 1010.6 1010.5 0.0
04/01:00pm 27.7 29.3 19.2 60 5.5 NE 9 13 5 7 1011.2 1011.1 0.0
04/12:30pm 26.6 28.3 18.5 61 5.2 SE 7 9 4 5 1011.8 1011.7 0.0
04/12:00pm 26.9 30.2 20.0 66 4.5 W 2 9 1 5 1012.5 1012.4 0.0
04/11:30am 25.5 27.7 19.2 68 4.0 S 6 11 3 6 1013.0 1012.9 0.0
04/11:00am 25.1 27.3 19.5 71 3.6 SW 7 13 4 7 1013.3 1013.2 0.0
04/10:30am 24.2 26.2 19.1 73 3.3 SW 7 15 4 8 1013.6 1013.5 0.0
04/10:00am 23.9 26.1 19.2 75 3.0 S 6 9 3 5 1013.7 1013.6 0.0
04/09:30am 23.3 24.8 19.0 77 2.7 SSW 9 13 5 7 1013.8 1013.7 0.0
04/09:00am 22.6 24.0 18.6 78 2.5 SW 9 11 5 6 1013.7 1013.6 0.0
04/08:30am 22.3 23.7 18.7 80 2.3 SW 9 13 5 7 1013.4 1013.3 0.0
04/08:00am 21.9 23.5 18.3 80 2.3 SW 7 13 4 7 1013.3 1013.2 0.0
04/07:30am 21.4 23.1 18.4 83 1.9 SW 7 9 4 5 1013.1 1013.0 0.0
04/07:00am 21.2 23.0 18.4 84 1.7 SW 6 9 3 5 1012.8 1012.7 0.0
04/06:30am 21.2 22.8 18.2 83 1.9 SW 7 9 4 5 1012.7 1012.6 0.0
04/06:00am 21.1 22.9 18.3 84 1.7 SW 6 9 3 5 1012.6 1012.5 0.0
04/05:30am 21.0 22.2 18.2 84 1.7 SSW 9 11 5 6 1012.4 1012.3 0.0
04/05:00am 20.9 22.0 18.1 84 1.7 SSW 9 11 5 6 1012.4 1012.3 0.0
04/04:30am 20.9 22.0 17.9 83 1.9 SSW 9 11 5 6 1012.4 1012.3 0.0
04/04:00am 20.8 22.2 17.8 83 1.9 SW 7 9 4 5 1012.5 1012.4 0.0
04/03:30am 20.9 22.0 17.9 83 1.9 SW 9 11 5 6 1012.7 1012.6 0.0
04/03:00am 20.8 21.4 17.8 83 1.9 SW 11 15 6 8 1013.1 1013.0 0.0
04/02:30am 20.7 21.7 17.7 83 1.8 SW 9 11 5 6 1013.2 1013.1 0.0
04/02:00am 20.9 21.9 17.7 82 2.0 SW 9 13 5 7 1013.5 1013.4 0.0
04/01:30am 21.2 22.1 17.6 80 2.2 SW 9 11 5 6 1013.9 1013.8 0.0
04/01:00am 21.6 22.6 17.8 79 2.4 SW 9 15 5 8 1013.9 1013.8 0.0
04/12:30am 21.6 22.6 17.8 79 2.4 SW 9 11 5 6 1013.9 1013.8 0.0
04/12:00am 21.8 23.2 17.8 78 2.5 SSW 7 11 4 6 1014.0 1013.9 0.0

Latest Capital City Observations: Canberra | Sydney | Melbourne | Brisbane | Adelaide | Perth | Hobart | Darwin

Other Formats:

Comma delimited format used in spreadsheet applications
http://www.bom.gov.au/fwo/IDN60901/IDN60901.95753.axf

JavaScript Object Notation format (JSON) in row-major order
http://www.bom.gov.au/fwo/IDN60901/IDN60901.95753.json